Time;durP1;ratioP1;P1;durP2;ratioP2;P2;SDS_P1;SDS_P2;PMS_P1;PMS_P2;Temp;Humidity;BMP_temperature;BMP_pressure;BME280_temperature;BME280_humidity;BME280_pressure;Samples;Min_cycle;Max_cycle;Signal;HPM_P1;HPM_P2
2022/01/21 00:00:12;;;;;;;10.10;5.20;;;1.00;99.90;;;;;;2613547;51;20432;-77
2022/01/21 00:02:38;;;;;;;8.40;5.27;;;1.00;99.90;;;;;;2612092;39;20941;-76
2022/01/21 00:05:05;;;;;;;5.40;4.90;;;1.00;99.90;;;;;;2611687;54;20506;-76
2022/01/21 00:07:31;;;;;;;16.53;5.97;;;0.90;99.90;;;;;;2612997;54;20426;-76
2022/01/21 00:09:57;;;;;;;12.43;5.50;;;1.00;99.90;;;;;;2611359;46;20433;-77
2022/01/21 00:12:25;;;;;;;11.73;6.03;;;1.10;99.90;;;;;;2613377;39;20817;-77
2022/01/21 00:14:51;;;;;;;14.13;5.50;;;1.20;99.90;;;;;;2614580;39;20827;-77
2022/01/21 00:17:19;;;;;;;9.20;5.50;;;1.20;99.90;;;;;;2613922;47;20406;-77
2022/01/21 00:19:48;;;;;;;6.30;5.50;;;1.30;99.90;;;;;;2611944;54;20386;-77
2022/01/21 00:30:27;;;;;;;11.50;5.43;;;1.30;99.90;;;;;;2611532;47;20459;-76
2022/01/21 00:32:53;;;;;;;10.10;5.00;;;1.30;99.90;;;;;;2611313;39;20819;-76
2022/01/21 00:35:21;;;;;;;16.70;5.73;;;1.30;99.90;;;;;;2611585;47;20180;-77
2022/01/21 00:37:48;;;;;;;7.30;5.00;;;1.40;99.90;;;;;;2615886;31;20607;-76
2022/01/21 00:40:18;;;;;;;17.17;6.83;;;1.40;99.90;;;;;;2614634;47;21052;-76
2022/01/21 00:42:52;;;;;;;12.87;4.93;;;1.30;99.90;;;;;;2616014;54;20463;-76
2022/01/21 00:45:19;;;;;;;8.73;5.17;;;1.30;99.90;;;;;;2615292;54;20435;-76
2022/01/21 00:47:47;;;;;;;10.17;5.07;;;1.40;99.90;;;;;;2615342;47;21431;-76
2022/01/21 00:50:15;;;;;;;24.67;6.40;;;1.40;99.90;;;;;;2612047;47;20445;-77
2022/01/21 00:52:42;;;;;;;14.10;4.73;;;1.40;99.90;;;;;;2613313;54;20415;-76
2022/01/21 00:55:09;;;;;;;10.17;4.73;;;1.20;99.90;;;;;;2612439;54;20407;-76
2022/01/21 00:57:35;;;;;;;9.63;5.30;;;1.20;99.90;;;;;;2612202;47;20522;-76
2022/01/21 01:00:00;;;;;;;10.43;4.80;;;1.20;99.90;;;;;;2612220;50;20432;-77
2022/01/21 01:02:26;;;;;;;10.70;6.10;;;1.30;99.90;;;;;;2612330;47;20398;-77
2022/01/21 01:04:52;;;;;;;8.57;5.20;;;1.40;99.90;;;;;;2614940;54;20171;-77
2022/01/21 01:07:19;;;;;;;11.93;5.70;;;1.30;99.90;;;;;;2615244;47;21051;-77
2022/01/21 01:09:51;;;;;;;10.10;4.80;;;1.30;99.90;;;;;;2615470;54;20690;-77
2022/01/21 01:12:29;;;;;;;15.97;5.00;;;1.30;99.90;;;;;;2614294;54;20453;-77
2022/01/21 01:20:24;;;;;;;9.43;4.70;;;1.40;99.90;;;;;;2611100;54;20457;-75
2022/01/21 01:22:56;;;;;;;9.57;4.67;;;1.20;99.90;;;;;;2612977;47;21010;-76
2022/01/21 01:28:07;;;;;;;11.37;5.07;;;1.10;99.90;;;;;;2614156;54;20422;-76
2022/01/21 01:30:35;;;;;;;11.60;7.10;;;1.10;99.90;;;;;;2611971;47;20431;-77
2022/01/21 01:33:02;;;;;;;13.00;6.17;;;0.90;99.90;;;;;;2612466;54;20889;-77
2022/01/21 01:35:33;;;;;;;8.30;6.20;;;0.90;99.90;;;;;;2613988;47;20418;-76
2022/01/21 01:38:24;;;;;;;16.17;6.70;;;0.90;99.90;;;;;;2611393;47;20415;-77
2022/01/21 01:40:55;;;;;;;12.50;6.63;;;0.90;99.90;;;;;;2614927;47;21216;-77
2022/01/21 01:51:22;;;;;;;13.63;6.73;;;1.40;99.90;;;;;;2612261;54;20429;-76
2022/01/21 01:53:53;;;;;;;15.10;7.17;;;1.30;99.90;;;;;;2610907;47;20435;-76
2022/01/21 01:56:24;;;;;;;11.03;6.03;;;1.30;99.90;;;;;;2611298;47;20391;-76
2022/01/21 01:58:50;;;;;;;14.10;6.10;;;1.30;99.90;;;;;;2612951;39;20822;-77
2022/01/21 02:01:15;;;;;;;15.47;6.00;;;1.40;99.90;;;;;;2613172;47;20424;-76
2022/01/21 02:03:41;;;;;;;12.03;6.27;;;1.40;99.90;;;;;;2616105;39;20819;-76
2022/01/21 02:06:07;;;;;;;18.17;7.67;;;1.40;99.90;;;;;;2615186;54;20206;-76
2022/01/21 02:08:34;;;;;;;15.13;4.83;;;1.40;99.90;;;;;;2614860;39;20566;-76
2022/01/21 02:11:01;;;;;;;11.30;5.70;;;1.30;99.90;;;;;;2612476;54;20387;-76
2022/01/21 02:13:30;;;;;;;15.30;5.87;;;1.20;99.90;;;;;;2612968;54;20398;-76
2022/01/21 02:15:56;;;;;;;8.37;5.20;;;1.10;99.90;;;;;;2613047;47;20416;-76
2022/01/21 02:21:31;;;;;;;13.80;5.87;;;1.10;99.90;;;;;;2612894;54;20155;-76
2022/01/21 02:24:01;;;;;;;9.00;5.80;;;1.10;99.90;;;;;;2611663;47;20459;-76
2022/01/21 02:26:28;;;;;;;14.27;5.87;;;1.30;99.90;;;;;;2614081;54;20428;-76
2022/01/21 02:28:55;;;;;;;9.17;5.60;;;1.20;99.90;;;;;;2614396;54;20430;-75
2022/01/21 02:31:23;;;;;;;11.47;5.40;;;1.10;99.90;;;;;;2612244;54;20419;-76
2022/01/21 02:33:49;;;;;;;10.40;5.83;;;1.00;99.90;;;;;;2612255;51;20550;-76
2022/01/21 02:36:15;;;;;;;6.57;4.87;;;0.90;99.90;;;;;;2614449;54;20928;-77
2022/01/21 02:38:41;;;;;;;18.60;6.33;;;0.90;99.90;;;;;;2612193;54;20427;-76
2022/01/21 02:41:07;;;;;;;8.40;6.07;;;0.90;99.90;;;;;;2613370;46;20182;-76
2022/01/21 02:43:33;;;;;;;12.13;6.87;;;0.90;99.90;;;;;;2614522;46;20163;-77
2022/01/21 02:46:04;;;;;;;7.43;5.40;;;0.90;99.90;;;;;;2614986;47;20446;-76
2022/01/21 02:48:36;;;;;;;10.53;6.10;;;0.90;99.90;;;;;;2614085;47;20403;-77
2022/01/21 02:51:02;;;;;;;10.10;6.10;;;0.80;99.90;;;;;;2611459;54;20462;-77
2022/01/21 02:53:40;;;;;;;14.23;6.13;;;0.80;99.90;;;;;;2611663;54;20462;-76
2022/01/21 02:56:10;;;;;;;7.20;6.20;;;0.90;99.90;;;;;;2613258;54;20395;-76
2022/01/21 02:58:37;;;;;;;9.50;7.33;;;1.00;99.90;;;;;;2612941;46;20431;-77
2022/01/21 03:01:03;;;;;;;14.80;5.60;;;1.10;99.90;;;;;;2610886;54;20423;-77
2022/01/21 03:03:29;;;;;;;9.90;5.10;;;1.20;99.90;;;;;;2614297;47;20414;-76
2022/01/21 03:05:55;;;;;;;6.80;5.50;;;1.30;99.90;;;;;;2615140;54;20444;-76
2022/01/21 03:08:21;;;;;;;11.40;5.50;;;1.30;99.90;;;;;;2612559;39;20773;-77
2022/01/21 03:10:48;;;;;;;10.70;5.17;;;1.20;99.90;;;;;;2612005;39;20485;-76
2022/01/21 03:13:14;;;;;;;12.27;4.77;;;1.30;99.90;;;;;;2612314;39;20555;-76
2022/01/21 03:15:41;;;;;;;10.53;5.60;;;1.20;99.90;;;;;;2610311;47;20420;-77
2022/01/21 03:18:08;;;;;;;12.67;6.33;;;1.30;99.90;;;;;;2614137;51;20535;-76
2022/01/21 03:20:33;;;;;;;10.93;5.17;;;1.30;99.90;;;;;;2611735;54;20991;-76
2022/01/21 03:23:01;;;;;;;9.03;5.70;;;1.30;99.90;;;;;;2612017;46;20163;-76
2022/01/21 03:25:27;;;;;;;11.47;5.27;;;1.30;99.90;;;;;;2612183;46;20170;-75
2022/01/21 03:27:53;;;;;;;10.87;6.87;;;1.50;99.90;;;;;;2611534;47;20435;-77
2022/01/21 03:30:21;;;;;;;10.20;6.03;;;1.50;99.90;;;;;;2614486;54;20442;-76
2022/01/21 03:32:55;;;;;;;11.83;5.30;;;1.70;99.90;;;;;;2612810;39;20905;-76
2022/01/21 03:35:20;;;;;;;6.27;4.70;;;1.90;99.90;;;;;;2612591;47;20434;-76
2022/01/21 03:37:46;;;;;;;8.03;4.90;;;2.10;99.90;;;;;;2611585;47;20329;-76
2022/01/21 03:40:12;;;;;;;15.30;7.30;;;2.10;99.90;;;;;;2611191;54;20437;-76
2022/01/21 03:42:38;;;;;;;14.83;5.90;;;2.00;99.90;;;;;;2611830;39;20504;-76
2022/01/21 03:45:05;;;;;;;13.67;6.07;;;2.00;99.90;;;;;;2612198;47;20420;-76
2022/01/21 03:47:31;;;;;;;11.03;5.43;;;1.90;99.90;;;;;;2611827;47;21521;-76
2022/01/21 03:50:18;;;;;;;7.53;5.10;;;1.80;99.90;;;;;;2611418;47;20424;-76
2022/01/21 03:52:43;;;;;;;10.23;4.87;;;1.50;99.90;;;;;;2612017;47;20254;-76
2022/01/21 03:55:09;;;;;;;10.73;5.20;;;1.50;99.90;;;;;;2612207;54;20411;-76
2022/01/21 03:57:35;;;;;;;9.43;6.17;;;2.00;99.90;;;;;;2611730;54;20205;-76
2022/01/21 04:00:01;;;;;;;9.50;5.13;;;2.00;99.90;;;;;;2611828;54;20858;-76
2022/01/21 04:02:27;;;;;;;9.70;4.63;;;1.80;99.90;;;;;;2614352;54;20175;-76
2022/01/21 04:04:53;;;;;;;12.20;5.50;;;1.40;99.90;;;;;;2613611;47;20469;-76
2022/01/21 04:07:19;;;;;;;10.20;5.00;;;1.30;99.90;;;;;;2613253;47;20173;-76
2022/01/21 04:09:45;;;;;;;7.57;5.93;;;1.30;99.90;;;;;;2612043;47;20170;-78
2022/01/21 04:12:11;;;;;;;7.63;4.97;;;1.20;99.90;;;;;;2611056;54;20217;-76
2022/01/21 04:14:37;;;;;;;8.73;4.53;;;1.20;99.90;;;;;;2614092;54;20424;-76
2022/01/21 04:17:03;;;;;;;17.43;5.33;;;1.20;99.90;;;;;;2612582;54;20507;-76
2022/01/21 04:19:29;;;;;;;7.43;5.10;;;1.10;99.90;;;;;;2612903;54;20963;-77
2022/01/21 04:21:56;;;;;;;8.57;4.70;;;1.10;99.90;;;;;;2614968;47;20430;-76
2022/01/21 04:24:22;;;;;;;13.37;6.63;;;1.00;99.90;;;;;;2615847;39;20860;-76
2022/01/21 04:26:48;;;;;;;12.73;5.73;;;1.00;99.90;;;;;;2614459;54;20463;-77
2022/01/21 04:29:15;;;;;;;9.60;5.70;;;1.10;99.90;;;;;;2614696;47;20447;-76
2022/01/21 04:31:44;;;;;;;14.90;6.20;;;1.20;99.90;;;;;;2614542;54;20463;-77
2022/01/21 04:34:11;;;;;;;6.97;5.83;;;1.20;99.90;;;;;;2614685;47;21013;-76
2022/01/21 04:36:37;;;;;;;10.47;5.40;;;1.20;99.90;;;;;;2614474;47;20423;-76
2022/01/21 04:39:06;;;;;;;9.67;5.53;;;1.40;99.90;;;;;;2613466;47;20701;-77
2022/01/21 04:49:51;;;;;;;20.90;6.30;;;1.30;99.90;;;;;;2613501;39;21302;-76
2022/01/21 04:52:18;;;;;;;9.90;5.70;;;1.30;99.90;;;;;;2611417;47;20443;-76
2022/01/21 04:55:10;;;;;;;9.43;5.63;;;1.50;99.90;;;;;;2612640;47;20495;-77
2022/01/21 04:57:37;;;;;;;7.10;4.17;;;1.50;99.90;;;;;;2613224;39;20868;-77
2022/01/21 05:00:06;;;;;;;9.80;5.63;;;1.50;99.90;;;;;;2611080;47;20403;-76
2022/01/21 05:02:34;;;;;;;11.10;5.10;;;1.60;99.90;;;;;;2613363;54;20420;-75
2022/01/21 05:05:03;;;;;;;15.93;5.27;;;1.60;99.90;;;;;;2612506;47;20457;-76
2022/01/21 05:07:34;;;;;;;8.60;5.70;;;1.60;99.90;;;;;;2610514;51;20518;-76
2022/01/21 05:10:02;;;;;;;13.10;5.00;;;1.60;99.90;;;;;;2610382;47;20414;-76
2022/01/21 05:12:29;;;;;;;12.00;5.27;;;1.60;99.90;;;;;;2610663;54;20457;-76
2022/01/21 05:17:30;;;;;;;8.37;5.33;;;1.70;99.90;;;;;;2610586;54;20434;-76
2022/01/21 05:19:56;;;;;;;16.20;6.03;;;1.70;99.90;;;;;;2613560;39;20877;-77
2022/01/21 05:22:51;;;;;;;10.40;6.60;;;1.60;99.90;;;;;;2611980;54;20523;-77
2022/01/21 05:25:18;;;;;;;8.13;5.50;;;1.60;99.90;;;;;;2612261;47;21057;-76
2022/01/21 05:27:50;;;;;;;9.37;5.80;;;1.60;99.90;;;;;;2614086;46;20292;-76
2022/01/21 05:30:16;;;;;;;15.80;5.23;;;1.80;99.90;;;;;;2614028;39;21146;-77
2022/01/21 05:32:52;;;;;;;10.40;5.70;;;2.10;99.90;;;;;;2611526;54;20459;-77
2022/01/21 05:35:38;;;;;;;12.70;5.57;;;1.80;99.90;;;;;;2611321;39;20919;-76
2022/01/21 05:38:30;;;;;;;17.23;7.03;;;1.80;99.90;;;;;;2611818;54;20429;-76
2022/01/21 05:41:29;;;;;;;10.23;5.10;;;1.80;99.90;;;;;;2611407;39;20788;-76
2022/01/21 05:46:22;;;;;;;9.50;5.23;;;1.90;99.90;;;;;;2612396;39;20816;-76
2022/01/21 05:47:32;;;;;;;7.30;4.67;;;2.00;99.90;;;;;;2611148;47;20408;-75
2022/01/21 05:50:22;;;;;;;11.13;5.17;;;2.20;99.90;;;;;;2610753;39;20881;-75
2022/01/21 05:53:22;;;;;;;5.97;5.10;;;2.20;99.90;;;;;;2610724;54;20403;-76
2022/01/21 05:56:12;;;;;;;14.70;4.40;;;2.20;99.90;;;;;;2610488;47;20426;-76
2022/01/21 05:58:51;;;;;;;8.90;4.60;;;2.30;99.90;;;;;;2611991;51;21032;-76
2022/01/21 06:01:17;;;;;;;6.93;4.40;;;2.70;99.90;;;;;;2610887;51;20424;-76
2022/01/21 06:03:43;;;;;;;10.40;5.47;;;2.70;99.90;;;;;;2610388;54;20431;-76
2022/01/21 06:06:10;;;;;;;13.27;4.30;;;2.60;99.90;;;;;;2610953;47;20441;-76
2022/01/21 06:08:39;;;;;;;9.67;5.90;;;2.40;99.90;;;;;;2611050;46;20520;-76
2022/01/21 06:11:05;;;;;;;11.30;4.50;;;2.00;99.90;;;;;;2610029;47;20427;-77
2022/01/21 06:13:31;;;;;;;10.30;5.53;;;1.90;99.90;;;;;;2612429;54;20909;-76
2022/01/21 06:15:59;;;;;;;6.77;5.60;;;1.60;99.90;;;;;;2613178;51;20462;-77
2022/01/21 06:18:26;;;;;;;11.13;5.20;;;1.50;99.90;;;;;;2614002;46;20453;-76
2022/01/21 06:20:52;;;;;;;6.07;4.80;;;1.40;99.90;;;;;;2611503;54;20433;-77
2022/01/21 06:23:19;;;;;;;9.37;4.43;;;1.20;99.90;;;;;;2613009;54;20423;-78
2022/01/21 06:25:45;;;;;;;10.70;5.67;;;1.30;99.90;;;;;;2612131;54;20441;-78
2022/01/21 06:28:12;;;;;;;10.77;6.13;;;1.20;99.90;;;;;;2611825;54;20446;-76
2022/01/21 06:30:38;;;;;;;10.70;4.90;;;1.30;99.90;;;;;;2610889;54;20467;-76
2022/01/21 06:33:04;;;;;;;8.33;4.67;;;1.40;99.90;;;;;;2610956;47;20428;-77
2022/01/21 06:35:30;;;;;;;9.57;4.63;;;1.60;99.90;;;;;;2613129;46;20441;-76
2022/01/21 06:37:56;;;;;;;7.10;5.37;;;2.00;99.90;;;;;;2610261;54;20174;-76
2022/01/21 06:40:22;;;;;;;8.87;4.40;;;1.80;99.90;;;;;;2612013;54;21001;-76
2022/01/21 06:42:48;;;;;;;14.37;5.67;;;1.90;99.90;;;;;;2609485;54;20242;-76
2022/01/21 06:45:16;;;;;;;9.23;5.50;;;1.90;99.90;;;;;;2611845;54;20250;-77
2022/01/21 06:47:41;;;;;;;15.20;4.50;;;1.80;99.90;;;;;;2612019;54;20971;-77
2022/01/21 06:50:09;;;;;;;7.50;4.63;;;1.60;99.90;;;;;;2611434;54;20411;-76
2022/01/21 06:52:35;;;;;;;4.60;4.20;;;1.50;99.90;;;;;;2612062;54;20210;-76
2022/01/21 06:55:02;;;;;;;12.03;5.47;;;1.50;99.90;;;;;;2606298;39;20953;-76
2022/01/21 06:57:28;;;;;;;17.17;6.37;;;1.50;99.90;;;;;;2607032;54;20154;-77
2022/01/21 06:59:55;;;;;;;8.90;5.40;;;1.50;99.90;;;;;;2604727;54;20391;-77
2022/01/21 07:02:21;;;;;;;14.97;5.93;;;1.50;99.90;;;;;;2608509;54;20423;-76
2022/01/21 07:04:48;;;;;;;17.43;6.67;;;1.40;99.90;;;;;;2608466;47;22776;-77
2022/01/21 07:07:15;;;;;;;12.23;6.27;;;1.40;99.90;;;;;;2610054;54;20506;-76
2022/01/21 07:09:41;;;;;;;15.70;5.90;;;1.30;99.90;;;;;;2609077;54;20418;-76
2022/01/21 07:12:07;;;;;;;11.83;7.10;;;1.20;99.90;;;;;;2608653;54;20411;-76
2022/01/21 07:14:33;;;;;;;7.40;6.60;;;1.20;99.90;;;;;;2609311;39;21879;-76
2022/01/21 07:16:59;;;;;;;13.30;5.40;;;1.20;99.90;;;;;;2609196;54;20383;-76
2022/01/21 07:19:25;;;;;;;15.57;5.97;;;1.10;99.90;;;;;;2607058;54;20190;-76
2022/01/21 07:21:51;;;;;;;13.83;5.50;;;1.10;99.90;;;;;;2607855;54;20573;-76
2022/01/21 07:24:17;;;;;;;17.30;4.57;;;1.10;99.90;;;;;;2607967;54;21320;-77
2022/01/21 07:26:42;;;;;;;17.30;5.03;;;1.10;99.90;;;;;;2606112;54;20707;-76
2022/01/21 07:29:08;;;;;;;15.07;5.97;;;1.20;99.90;;;;;;2608237;47;20550;-77
2022/01/21 07:31:34;;;;;;;14.37;7.10;;;1.20;99.90;;;;;;2609386;54;20151;-77
2022/01/21 07:34:04;;;;;;;11.93;7.23;;;1.20;99.90;;;;;;2606387;46;20181;-76
2022/01/21 07:36:32;;;;;;;9.33;5.80;;;1.30;99.90;;;;;;2608282;54;20442;-77
2022/01/21 07:38:58;;;;;;;13.90;6.83;;;1.30;99.90;;;;;;2608215;54;20402;-76
2022/01/21 07:41:24;;;;;;;10.60;7.10;;;1.40;99.90;;;;;;2607483;39;20493;-76
2022/01/21 07:43:50;;;;;;;18.93;10.20;;;1.30;99.90;;;;;;2605256;54;20261;-75
2022/01/21 07:46:16;;;;;;;24.83;8.70;;;1.40;99.90;;;;;;2606260;54;20428;-76
2022/01/21 07:48:42;;;;;;;12.33;8.10;;;1.40;99.90;;;;;;2609242;54;21061;-75
2022/01/21 07:51:08;;;;;;;14.50;10.20;;;1.40;99.90;;;;;;2608258;54;20381;-76
2022/01/21 07:53:34;;;;;;;12.80;9.10;;;1.50;99.90;;;;;;2606694;47;20427;-76
2022/01/21 07:56:01;;;;;;;14.00;6.80;;;1.40;99.90;;;;;;2608279;39;20819;-76
2022/01/21 07:58:27;;;;;;;15.10;7.47;;;1.40;99.90;;;;;;2607825;52;20167;-76
2022/01/21 08:00:53;;;;;;;14.80;7.60;;;1.40;99.90;;;;;;2604969;47;20398;-76
2022/01/21 08:03:20;;;;;;;13.00;7.20;;;1.50;99.90;;;;;;2608265;54;20654;-76
2022/01/21 08:05:46;;;;;;;19.30;8.00;;;1.50;99.90;;;;;;2609547;54;22156;-77
2022/01/21 08:08:13;;;;;;;8.83;7.10;;;1.50;99.90;;;;;;2609003;54;20398;-77
2022/01/21 08:10:39;;;;;;;13.27;8.30;;;1.50;99.90;;;;;;2607946;47;21275;-77
2022/01/21 08:13:05;;;;;;;14.87;8.03;;;1.60;99.90;;;;;;2608272;54;20402;-77
2022/01/21 08:15:31;;;;;;;15.70;7.83;;;1.50;99.90;;;;;;2608527;54;20181;-76
2022/01/21 08:17:57;;;;;;;10.13;8.17;;;1.50;99.90;;;;;;2608525;51;20180;-76
2022/01/21 08:20:23;;;;;;;8.37;7.57;;;1.50;99.90;;;;;;2608604;54;20438;-76
2022/01/21 08:22:49;;;;;;;22.23;7.43;;;1.60;99.90;;;;;;2610692;39;21068;-76
2022/01/21 08:25:15;;;;;;;13.37;8.50;;;1.50;99.90;;;;;;2609023;54;20390;-78
2022/01/21 08:27:41;;;;;;;19.40;7.93;;;1.60;99.90;;;;;;2608483;54;20155;-77
2022/01/21 08:30:08;;;;;;;20.50;8.33;;;1.70;99.90;;;;;;2606864;54;20371;-77
2022/01/21 08:32:34;;;;;;;14.20;9.03;;;1.60;99.90;;;;;;2608562;51;20427;-78
2022/01/21 08:35:00;;;;;;;18.80;8.53;;;1.70;99.90;;;;;;2609809;54;20415;-77
2022/01/21 08:37:26;;;;;;;10.17;7.70;;;1.80;99.90;;;;;;2608891;47;20414;-77
2022/01/21 08:39:52;;;;;;;14.83;8.70;;;1.80;99.90;;;;;;2608769;54;20407;-77
2022/01/21 08:42:19;;;;;;;11.70;9.57;;;1.80;99.90;;;;;;2606815;54;20990;-77
2022/01/21 08:44:44;;;;;;;14.10;8.67;;;1.90;99.90;;;;;;2608369;54;20422;-78
2022/01/21 08:47:10;;;;;;;13.40;8.17;;;1.80;99.90;;;;;;2607777;54;21027;-77
2022/01/21 08:49:36;;;;;;;13.80;9.60;;;1.80;99.90;;;;;;2608576;39;20549;-77
2022/01/21 08:52:03;;;;;;;12.47;8.43;;;1.70;99.90;;;;;;2610164;54;20252;-77
2022/01/21 08:54:29;;;;;;;11.10;8.60;;;1.70;99.90;;;;;;2611185;39;20950;-76
2022/01/21 08:56:56;;;;;;;16.10;9.33;;;1.80;99.90;;;;;;2607733;47;20460;-77
2022/01/21 08:59:22;;;;;;;11.50;8.23;;;1.90;99.90;;;;;;2608729;54;20419;-77
2022/01/21 09:01:49;;;;;;;14.43;8.63;;;2.00;99.90;;;;;;2607246;39;20974;-78
2022/01/21 09:04:16;;;;;;;14.93;7.70;;;2.30;99.90;;;;;;2608162;54;20442;-77
2022/01/21 09:06:42;;;;;;;5.53;4.67;;;2.40;99.90;;;;;;2608454;39;21913;-77
2022/01/21 09:09:08;;;;;;;9.53;7.37;;;2.30;99.90;;;;;;2606129;54;20417;-77
2022/01/21 09:11:34;;;;;;;17.77;10.10;;;2.30;99.90;;;;;;2607841;54;20394;-76
2022/01/21 09:14:01;;;;;;;8.40;6.77;;;2.30;99.90;;;;;;2607701;54;20154;-77
2022/01/21 09:16:27;;;;;;;13.40;7.10;;;2.40;99.90;;;;;;2609042;47;20482;-76
2022/01/21 09:18:57;;;;;;;11.23;9.27;;;2.40;99.90;;;;;;2609614;54;20394;-78
2022/01/21 09:21:26;;;;;;;16.43;9.70;;;2.50;99.90;;;;;;2608957;54;20418;-77
2022/01/21 09:23:54;;;;;;;18.03;9.17;;;2.40;99.90;;;;;;2608454;54;20947;-76
2022/01/21 09:26:23;;;;;;;24.17;8.90;;;2.30;99.90;;;;;;2606795;54;20414;-77
2022/01/21 09:28:51;;;;;;;11.27;7.37;;;2.40;99.90;;;;;;2606763;54;20398;-77
2022/01/21 09:31:19;;;;;;;13.10;8.07;;;2.40;99.90;;;;;;2605826;54;20946;-76
2022/01/21 09:33:45;;;;;;;13.80;9.77;;;2.40;99.90;;;;;;2655841;36;20478;-77
2022/01/21 09:36:12;;;;;;;20.33;8.40;;;2.80;99.90;;;;;;2607438;47;20412;-77
2022/01/21 09:38:39;;;;;;;12.87;9.10;;;3.20;99.90;;;;;;2608192;54;20408;-82
2022/01/21 09:41:09;;;;;;;10.33;5.80;;;3.50;99.90;;;;;;2606512;39;22482;-76
2022/01/21 09:43:38;;;;;;;14.60;7.60;;;3.30;99.90;;;;;;2607793;54;20414;-76
2022/01/21 09:46:07;;;;;;;15.07;7.93;;;3.30;99.90;;;;;;2606918;47;20446;-76
2022/01/21 09:48:50;;;;;;;11.53;9.27;;;3.20;99.90;;;;;;2608400;54;20387;-76
2022/01/21 09:51:16;;;;;;;14.70;8.43;;;3.20;99.90;;;;;;2607432;54;20493;-76
2022/01/21 09:53:42;;;;;;;13.90;9.23;;;3.30;99.90;;;;;;2608562;50;20944;-76
2022/01/21 09:56:09;;;;;;;12.67;9.27;;;3.60;99.90;;;;;;2608836;54;20378;-76
2022/01/21 09:58:35;;;;;;;11.23;7.57;;;3.60;99.90;;;;;;2606093;54;20447;-76
2022/01/21 10:01:09;;;;;;;16.53;10.20;;;3.70;99.90;;;;;;2606341;39;21827;-75
2022/01/21 10:03:35;;;;;;;14.37;9.67;;;3.60;99.90;;;;;;2606811;54;20419;-76
2022/01/21 10:06:03;;;;;;;12.90;8.50;;;3.60;99.90;;;;;;2611369;54;20457;-76
2022/01/21 10:08:30;;;;;;;12.00;8.50;;;3.70;99.90;;;;;;2606656;54;20419;-76
2022/01/21 10:10:58;;;;;;;17.47;9.07;;;3.90;99.90;;;;;;2605674;54;20453;-77
2022/01/21 10:13:24;;;;;;;18.07;8.90;;;3.90;99.90;;;;;;2608303;54;20407;-76
2022/01/21 10:15:50;;;;;;;14.90;9.73;;;3.50;99.90;;;;;;2607412;47;20992;-76
2022/01/21 10:18:20;;;;;;;13.53;9.23;;;3.60;99.90;;;;;;2605649;39;20787;-77
2022/01/21 10:21:04;;;;;;;18.10;7.67;;;3.90;99.90;;;;;;2606644;39;21079;-75
2022/01/21 10:23:33;;;;;;;12.00;10.10;;;4.10;99.90;;;;;;2607059;54;20443;-77
2022/01/21 10:26:09;;;;;;;15.20;9.70;;;4.30;99.90;;;;;;2609509;31;20907;-76
2022/01/21 10:28:37;;;;;;;10.53;7.80;;;5.50;99.90;;;;;;2608165;39;21040;-76
2022/01/21 10:31:09;;;;;;;13.23;8.90;;;5.50;99.90;;;;;;2606303;54;20419;-77
2022/01/21 10:33:48;;;;;;;16.13;9.33;;;4.90;99.90;;;;;;2609567;54;20388;-76
2022/01/21 10:36:33;;;;;;;16.27;9.00;;;5.10;99.90;;;;;;2610308;54;20486;-77
2022/01/21 10:39:11;;;;;;;14.43;8.43;;;5.50;99.90;;;;;;2608049;54;20406;-78
2022/01/21 10:41:42;;;;;;;18.63;9.53;;;5.30;99.90;;;;;;2607426;54;20425;-76
2022/01/21 10:44:12;;;;;;;23.33;8.47;;;6.00;99.90;;;;;;2609993;54;20566;-76
2022/01/21 10:47:03;;;;;;;10.33;8.30;;;6.40;99.90;;;;;;2607000;47;21205;-78
2022/01/21 10:49:28;;;;;;;10.93;7.97;;;5.80;99.90;;;;;;2605413;39;21048;-76
2022/01/21 10:51:55;;;;;;;13.43;8.10;;;5.30;99.90;;;;;;2605797;54;20463;-76
2022/01/21 10:54:22;;;;;;;8.10;7.27;;;5.40;99.90;;;;;;2605701;50;20171;-77
2022/01/21 10:57:19;;;;;;;13.43;7.60;;;5.10;99.90;;;;;;2608564;54;20395;-76
2022/01/21 10:59:53;;;;;;;10.43;7.07;;;5.60;99.90;;;;;;2607720;39;20884;-75
2022/01/21 11:02:53;;;;;;;15.80;8.30;;;5.20;99.90;;;;;;2608492;54;20405;-76
2022/01/21 11:05:25;;;;;;;11.43;8.87;;;5.00;99.90;;;;;;2625832;36;20462;-78
2022/01/21 11:08:19;;;;;;;5.67;4.13;;;5.10;99.90;;;;;;2608089;47;20438;-76
2022/01/21 11:10:48;;;;;;;16.73;7.93;;;5.00;99.90;;;;;;2608936;47;20418;-77
2022/01/21 11:13:18;;;;;;;11.27;7.17;;;5.50;99.90;;;;;;2609245;54;20406;-78
2022/01/21 11:15:50;;;;;;;18.00;10.30;;;5.90;99.90;;;;;;2609985;54;21292;-76
2022/01/21 11:18:19;;;;;;;12.43;7.83;;;5.60;99.90;;;;;;2607601;54;20511;-79
2022/01/21 11:20:50;;;;;;;9.10;6.80;;;6.00;99.90;;;;;;2605535;39;20926;-77
2022/01/21 11:23:17;;;;;;;14.73;8.40;;;5.40;99.90;;;;;;2606648;47;20431;-77
2022/01/21 11:25:44;;;;;;;14.67;8.70;;;5.40;99.90;;;;;;2608297;54;20423;-78
2022/01/21 11:28:17;;;;;;;14.33;7.83;;;5.30;99.90;;;;;;2607607;54;20435;-78
2022/01/21 11:30:44;;;;;;;14.37;9.60;;;5.40;99.90;;;;;;2608176;39;20497;-78
2022/01/21 11:33:10;;;;;;;10.53;6.10;;;5.50;99.90;;;;;;2607570;51;20491;-77
2022/01/21 11:35:37;;;;;;;24.63;10.30;;;5.30;99.90;;;;;;2607513;54;20518;-77
2022/01/21 11:38:06;;;;;;;17.83;8.73;;;5.40;99.90;;;;;;2608712;54;20414;-80
2022/01/21 11:40:33;;;;;;;8.87;6.20;;;5.50;99.90;;;;;;2607666;54;20996;-77
2022/01/21 11:43:02;;;;;;;9.27;5.30;;;5.60;99.90;;;;;;2607741;39;20818;-77
2022/01/21 11:50:40;;;;;;;12.60;5.50;;;5.60;99.90;;;;;;2607369;54;20944;-77
2022/01/21 11:53:07;;;;;;;11.33;7.10;;;5.40;99.90;;;;;;2607498;54;20392;-77
2022/01/21 11:55:38;;;;;;;7.87;4.77;;;5.40;99.90;;;;;;2607110;47;20900;-77
2022/01/21 11:58:21;;;;;;;6.80;5.73;;;5.50;99.90;;;;;;2608497;54;20430;-77
2022/01/21 12:00:53;;;;;;;8.07;4.20;;;5.80;99.90;;;;;;2606207;54;20383;-77
2022/01/21 12:03:22;;;;;;;7.33;5.60;;;5.90;99.90;;;;;;2608333;39;20882;-77
2022/01/21 12:05:51;;;;;;;6.00;4.33;;;6.00;99.90;;;;;;2606109;47;20450;-77
2022/01/21 12:08:47;;;;;;;12.73;6.70;;;6.00;99.90;;;;;;2610672;31;21031;-76
2022/01/21 12:11:37;;;;;;;10.83;5.43;;;6.10;99.90;;;;;;2608615;46;20510;-76
2022/01/21 12:14:34;;;;;;;11.27;5.70;;;6.20;99.90;;;;;;2607878;51;20415;-77
2022/01/21 12:17:13;;;;;;;10.97;4.60;;;6.40;99.90;;;;;;2608136;47;20477;-76
2022/01/21 12:19:40;;;;;;;12.50;4.80;;;6.20;99.90;;;;;;2607658;54;20395;-76
2022/01/21 12:22:15;;;;;;;14.53;4.77;;;6.20;99.90;;;;;;2608273;54;20423;-76
2022/01/21 12:25:04;;;;;;;9.37;5.70;;;6.30;99.90;;;;;;2608491;54;20426;-77
2022/01/21 12:27:31;;;;;;;13.07;5.70;;;6.60;99.90;;;;;;2609039;39;21473;-77
2022/01/21 12:30:30;;;;;;;14.33;5.60;;;6.50;99.90;;;;;;2608749;54;20931;-77
2022/01/21 12:33:08;;;;;;;16.03;7.03;;;6.30;99.90;;;;;;2609286;54;20429;-77
2022/01/21 12:35:47;;;;;;;9.17;5.57;;;6.40;99.90;;;;;;2609438;54;20541;-76
2022/01/21 12:41:15;;;;;;;16.27;6.00;;;5.90;99.90;;;;;;2606871;47;20447;-77
2022/01/21 12:43:52;;;;;;;7.93;5.37;;;5.90;99.90;;;;;;2609002;51;20415;-78
2022/01/21 12:46:24;;;;;;;8.43;4.57;;;5.90;99.90;;;;;;2610167;54;20421;-77
2022/01/21 12:48:51;;;;;;;7.53;4.60;;;6.00;99.90;;;;;;2609523;54;20403;-77
2022/01/21 12:57:31;;;;;;;7.33;3.63;;;6.10;99.90;;;;;;2609229;47;20423;-77
2022/01/21 13:00:00;;;;;;;8.67;4.13;;;6.10;99.90;;;;;;2609481;39;20820;-76
2022/01/21 13:02:28;;;;;;;12.20;5.07;;;5.90;99.90;;;;;;2609193;54;20420;-77
2022/01/21 13:05:26;;;;;;;11.00;5.00;;;5.80;99.90;;;;;;2609371;54;20982;-76
2022/01/21 13:08:18;;;;;;;7.30;4.50;;;5.90;99.90;;;;;;2609545;39;20799;-77
2022/01/21 13:10:44;;;;;;;15.83;4.37;;;5.80;99.90;;;;;;2608442;54;21005;-77
2022/01/21 13:15:45;;;;;;;14.00;6.17;;;5.90;99.90;;;;;;2608317;47;20432;-77
2022/01/21 13:18:17;;;;;;;7.67;4.20;;;6.10;99.90;;;;;;2609498;54;20414;-77
2022/01/21 13:20:47;;;;;;;7.33;4.37;;;6.20;99.90;;;;;;2608987;54;20490;-77
2022/01/21 13:23:28;;;;;;;28.17;16.67;;;6.00;99.90;;;;;;2607447;47;20424;-76
2022/01/21 13:26:16;;;;;;;23.17;3.60;;;6.40;99.90;;;;;;2608532;47;20978;-76
2022/01/21 13:29:11;;;;;;;6.57;3.77;;;6.10;99.90;;;;;;2609150;54;21006;-77
2022/01/21 13:31:45;;;;;;;10.70;3.80;;;6.00;99.90;;;;;;2609197;54;20426;-76
2022/01/21 13:34:13;;;;;;;12.90;4.43;;;5.90;99.90;;;;;;2609292;54;20541;-77
2022/01/21 13:36:49;;;;;;;7.60;5.03;;;5.90;99.90;;;;;;2608077;47;20427;-77
2022/01/21 13:39:21;;;;;;;9.93;4.33;;;6.00;99.90;;;;;;2609602;54;20470;-77
2022/01/21 13:42:03;;;;;;;11.50;4.93;;;6.10;99.90;;;;;;2609418;47;20411;-77
2022/01/21 13:44:31;;;;;;;8.20;5.30;;;6.20;99.90;;;;;;2612830;54;20400;-77
2022/01/21 13:46:58;;;;;;;7.03;3.20;;;6.00;99.90;;;;;;2611659;49;20415;-77
2022/01/21 13:49:25;;;;;;;10.43;4.60;;;6.00;99.90;;;;;;2611713;47;20435;-77
2022/01/21 13:52:05;;;;;;;10.53;5.07;;;6.00;99.90;;;;;;2612435;54;20554;-77
2022/01/21 13:54:37;;;;;;;10.83;4.00;;;6.00;99.90;;;;;;2612617;54;20423;-77
2022/01/21 13:57:05;;;;;;;8.00;3.73;;;6.00;99.90;;;;;;2612487;54;20419;-76
2022/01/21 13:59:32;;;;;;;12.20;8.57;;;5.80;99.90;;;;;;2611492;47;20449;-77